createdAt,value
2019-04-29T00:04:05.952Z,100.00
2019-04-29T00:09:15.591Z,100.00
2019-04-29T00:14:21.330Z,100.00
2019-04-29T00:19:28.719Z,100.00
2019-04-29T00:24:35.647Z,100.00
2019-04-29T00:29:41.411Z,100.00
2019-04-29T00:34:47.452Z,100.00
2019-04-29T00:40:09.903Z,100.00
2019-04-29T00:45:18.478Z,100.00
2019-04-29T00:50:24.227Z,100.00
2019-04-29T00:55:31.663Z,100.00
2019-04-29T01:00:39.932Z,100.00
2019-04-29T01:05:45.762Z,100.00
2019-04-29T01:10:51.445Z,100.00
2019-04-29T01:15:57.040Z,100.00
2019-04-29T01:21:02.559Z,100.00
2019-04-29T01:26:12.652Z,100.00
2019-04-29T01:31:19.877Z,100.00
2019-04-29T01:36:27.246Z,100.00
2019-04-29T01:41:37.649Z,100.00
2019-04-29T01:46:43.380Z,100.00
2019-04-29T01:51:49.138Z,100.00
2019-04-29T01:56:54.737Z,100.00
2019-04-29T02:02:00.356Z,100.00
2019-04-29T02:07:06.024Z,100.00
2019-04-29T02:12:11.702Z,100.00
2019-04-29T02:17:17.524Z,100.00
2019-04-29T02:22:27.613Z,100.00
2019-04-29T02:27:33.243Z,100.00
2019-04-29T02:32:38.906Z,100.00
2019-04-29T02:37:45.342Z,100.00
2019-04-29T02:42:52.762Z,100.00
2019-04-29T02:47:58.281Z,100.00
2019-04-29T02:53:04.040Z,100.00
2019-04-29T02:58:23.510Z,100.00
2019-04-29T03:03:30.940Z,100.00
2019-04-29T03:08:36.501Z,100.00
2019-04-29T03:13:42.853Z,100.00
2019-04-29T03:18:50.706Z,100.00
2019-04-29T03:23:56.331Z,100.00
2019-04-29T03:29:01.912Z,100.00
2019-04-29T03:34:07.597Z,100.00
2019-04-29T03:39:13.252Z,100.00
2019-04-29T03:44:18.904Z,100.00
2019-04-29T03:49:24.536Z,100.00
2019-04-29T03:54:30.181Z,100.00
2019-04-29T03:59:35.735Z,100.00
2019-04-29T04:04:55.086Z,100.00
2019-04-29T04:10:00.718Z,100.00
2019-04-29T04:15:08.110Z,100.00
2019-04-29T04:20:14.638Z,100.00
2019-04-29T04:25:20.410Z,100.00
2019-04-29T04:30:26.282Z,100.00
2019-04-29T04:35:31.901Z,100.00
2019-04-29T04:40:42.092Z,100.00
2019-04-29T04:45:47.843Z,100.00
2019-04-29T04:50:53.636Z,100.00
2019-04-29T04:56:01.277Z,100.00
2019-04-29T05:01:07.025Z,100.00
2019-04-29T05:06:12.898Z,100.00
2019-04-29T05:11:18.832Z,100.00
2019-04-29T05:16:24.618Z,100.00
2019-04-29T05:21:30.333Z,100.00
2019-04-29T05:26:35.967Z,100.00
2019-04-29T05:31:41.852Z,100.00
2019-04-29T05:36:55.591Z,100.00
2019-04-29T05:42:01.777Z,100.00
2019-04-29T05:47:09.175Z,100.00
2019-04-29T05:52:19.443Z,100.00
2019-04-29T05:57:26.985Z,100.00
2019-04-29T06:02:35.112Z,100.00
2019-04-29T06:07:40.233Z,100.00
2019-04-29T06:12:46.138Z,100.00
2019-04-29T06:17:52.112Z,100.00
2019-04-29T06:22:57.882Z,100.00
2019-04-29T06:28:03.937Z,100.00
2019-04-29T06:33:10.647Z,100.00
2019-04-29T06:38:16.514Z,100.00
2019-04-29T06:43:24.692Z,100.00
2019-04-29T06:48:29.796Z,100.00
2019-04-29T06:53:35.654Z,100.00
2019-04-29T06:58:41.429Z,100.00
2019-04-29T07:03:47.291Z,100.00
2019-04-29T07:08:53.251Z,100.00
2019-04-29T07:13:59.368Z,100.00
2019-04-29T07:19:05.326Z,100.00
2019-04-29T07:24:11.298Z,100.00
2019-04-29T07:29:17.795Z,100.00
2019-04-29T07:34:28.885Z,100.00
2019-04-29T07:39:33.505Z,100.00
2019-04-29T07:44:44.296Z,100.00
2019-04-29T07:49:51.487Z,100.00
2019-04-29T07:54:56.317Z,100.00
2019-04-29T08:00:02.098Z,100.00
2019-04-29T08:05:09.407Z,100.00
2019-04-29T08:10:23.451Z,100.00
2019-04-29T08:15:22.956Z,100.00
2019-04-29T08:20:28.845Z,100.00
2019-04-29T08:25:34.738Z,100.00
2019-04-29T08:30:41.911Z,100.00
2019-04-29T08:35:47.952Z,100.00
2019-04-29T08:40:54.084Z,100.00
2019-04-29T08:46:13.427Z,100.00
2019-04-29T08:51:19.345Z,100.00
2019-04-29T08:56:25.125Z,100.00
2019-04-29T09:01:34.182Z,100.00
2019-04-29T09:06:38.701Z,100.00
2019-04-29T09:11:47.940Z,100.00
2019-04-29T09:16:52.487Z,100.00
2019-04-29T09:21:59.901Z,100.00
2019-04-29T09:27:19.187Z,100.00
2019-04-29T09:32:25.459Z,100.00
2019-04-29T09:37:31.334Z,100.00
2019-04-29T09:42:45.532Z,100.00
2019-04-29T09:47:49.013Z,100.00
2019-04-29T09:52:54.877Z,100.00
2019-04-29T09:58:00.707Z,100.00
2019-04-29T10:03:23.329Z,100.00
2019-04-29T10:08:29.246Z,100.00
2019-04-29T10:13:35.062Z,100.00
2019-04-29T10:18:42.599Z,100.00
2019-04-29T10:23:48.474Z,100.00
2019-04-29T10:28:55.869Z,100.00
2019-04-29T10:34:01.721Z,100.00
2019-04-29T10:39:22.744Z,100.00
2019-04-29T10:44:37.613Z,100.00
2019-04-29T10:49:53.948Z,100.00
2019-04-29T10:55:00.333Z,100.00
2019-04-29T11:00:10.347Z,100.00
2019-04-29T11:05:28.063Z,100.00
2019-04-29T11:10:33.928Z,100.00
2019-04-29T11:15:44.982Z,100.00
2019-04-29T11:20:53.846Z,100.00
2019-04-29T11:26:04.483Z,100.00
2019-04-29T11:31:13.997Z,100.00
2019-04-29T11:36:29.062Z,100.00
2019-04-29T11:41:34.925Z,100.00
2019-04-29T11:46:44.718Z,100.00
2019-04-29T11:52:08.585Z,100.00
2019-04-29T11:56:56.141Z,100.00
2019-04-29T12:02:07.751Z,100.00
2019-04-29T12:07:13.636Z,100.00
2019-04-29T12:12:20.932Z,100.00
2019-04-29T12:17:34.425Z,100.00
2019-04-29T12:22:48.514Z,100.00
2019-04-29T12:27:52.847Z,100.00
2019-04-29T12:33:01.394Z,100.00
2019-04-29T12:38:23.699Z,100.00
2019-04-29T12:43:34.395Z,100.00
2019-04-29T12:48:40.436Z,100.00
2019-04-29T12:53:46.220Z,100.00
2019-04-29T12:58:55.265Z,100.00
2019-04-29T13:04:17.584Z,100.00
2019-04-29T13:09:42.325Z,100.00
2019-04-29T13:15:07.843Z,100.00
2019-04-29T13:20:13.530Z,100.00
2019-04-29T13:25:19.753Z,80.48
2019-04-29T13:30:26.577Z,74.25
2019-04-29T13:35:32.410Z,64.58
2019-04-29T13:40:39.486Z,55.72
2019-04-29T13:45:47.022Z,49.32
2019-04-29T13:51:06.452Z,49.12
2019-04-29T13:56:32.263Z,46.61
2019-04-29T14:01:29.851Z,42.45
2019-04-29T14:06:29.903Z,41.65
2019-04-29T14:11:35.707Z,42.85
2019-04-29T14:16:43.160Z,44.19
2019-04-29T14:21:48.851Z,37.27
2019-04-29T14:26:54.536Z,34.58
2019-04-29T14:32:01.390Z,38.59
2019-04-29T14:37:20.036Z,45.70
2019-04-29T14:42:17.377Z,47.85
2019-04-29T14:47:24.697Z,45.42
2019-04-29T14:52:30.824Z,46.23
2019-04-29T14:57:36.715Z,43.11
2019-04-29T15:02:42.538Z,40.31
2019-04-29T15:07:48.526Z,38.92
2019-04-29T15:13:01.506Z,47.33
2019-04-29T15:18:15.850Z,47.54
2019-04-29T15:23:28.488Z,45.85
2019-04-29T15:28:25.315Z,48.81
2019-04-29T15:33:34.664Z,46.65
2019-04-29T15:38:38.719Z,44.88
2019-04-29T15:43:47.632Z,46.61
2019-04-29T15:48:53.346Z,49.76
2019-04-29T15:53:59.025Z,51.91
2019-04-29T15:59:08.817Z,53.83
2019-04-29T16:04:13.770Z,52.18
2019-04-29T16:09:23.688Z,49.35
2019-04-29T16:14:28.537Z,48.76
2019-04-29T16:19:34.309Z,47.23
2019-04-29T16:24:40.138Z,48.85
2019-04-29T16:29:51.575Z,50.98
2019-04-29T16:34:54.956Z,52.03
2019-04-29T16:40:01.334Z,50.28
2019-04-29T16:45:12.022Z,49.84
2019-04-29T16:50:16.397Z,48.35
2019-04-29T16:55:22.130Z,44.33
2019-04-29T17:00:29.484Z,50.04
2019-04-29T17:05:35.274Z,54.95
2019-04-29T17:10:46.016Z,68.26
2019-04-29T17:15:52.575Z,75.57
2019-04-29T17:21:04.749Z,84.67
2019-04-29T17:26:08.042Z,86.48
2019-04-29T17:31:16.494Z,96.62
2019-04-29T17:36:25.830Z,97.24
2019-04-29T17:41:31.911Z,100.00
2019-04-29T17:46:48.531Z,100.00
2019-04-29T17:52:01.479Z,100.00
2019-04-29T17:57:25.116Z,100.00
2019-04-29T18:02:30.617Z,100.00
2019-04-29T18:07:44.997Z,100.00
2019-04-29T18:12:48.559Z,100.00
2019-04-29T18:17:55.892Z,100.00
2019-04-29T18:23:15.853Z,100.00
2019-04-29T18:28:21.078Z,100.00
2019-04-29T18:33:30.256Z,100.00
2019-04-29T18:38:35.048Z,100.00
2019-04-29T18:43:41.084Z,100.00
2019-04-29T18:48:46.958Z,100.00
2019-04-29T18:53:52.875Z,100.00
2019-04-29T18:58:58.645Z,100.00
2019-04-29T19:04:10.239Z,100.00
2019-04-29T19:09:19.855Z,100.00
2019-04-29T19:14:26.848Z,100.00
2019-04-29T19:19:34.818Z,100.00
2019-04-29T19:24:38.286Z,100.00
2019-04-29T19:29:45.291Z,100.00
2019-04-29T19:34:54.927Z,100.00
2019-04-29T19:39:59.672Z,100.00
2019-04-29T19:45:13.242Z,100.00
2019-04-29T19:50:19.502Z,100.00
2019-04-29T19:55:25.547Z,100.00
2019-04-29T20:00:32.083Z,100.00
2019-04-29T20:06:07.421Z,100.00
2019-04-29T20:11:12.283Z,100.00
2019-04-29T20:16:23.058Z,100.00
2019-04-29T20:21:29.309Z,100.00
2019-04-29T20:26:35.981Z,100.00
2019-04-29T20:31:48.596Z,100.00
2019-04-29T20:36:49.680Z,100.00
2019-04-29T20:42:00.656Z,100.00
2019-04-29T20:47:19.126Z,100.00
2019-04-29T20:52:29.622Z,100.00
2019-04-29T20:57:36.021Z,100.00
2019-04-29T21:02:42.133Z,100.00
2019-04-29T21:07:49.220Z,100.00
2019-04-29T21:13:02.837Z,100.00
2019-04-29T21:18:10.274Z,100.00
2019-04-29T21:23:17.138Z,100.00
2019-04-29T21:28:22.934Z,100.00
2019-04-29T21:33:31.151Z,100.00
2019-04-29T21:38:38.047Z,100.00
2019-04-29T21:43:53.527Z,100.00
2019-04-29T21:48:57.378Z,100.00
2019-04-29T21:54:03.589Z,100.00
2019-04-29T21:59:12.277Z,100.00
2019-04-29T22:04:18.346Z,100.00
2019-04-29T22:09:35.854Z,100.00
2019-04-29T22:14:32.753Z,100.00
2019-04-29T22:19:39.425Z,100.00
2019-04-29T22:24:45.805Z,100.00
2019-04-29T22:29:51.652Z,100.00
2019-04-29T22:35:01.167Z,100.00
2019-04-29T22:40:09.988Z,100.00
2019-04-29T22:45:15.819Z,100.00
2019-04-29T22:50:21.561Z,100.00
2019-04-29T22:55:30.784Z,100.00
2019-04-29T23:00:36.257Z,100.00
2019-04-29T23:05:43.236Z,100.00
2019-04-29T23:10:49.148Z,100.00
2019-04-29T23:16:00.979Z,100.00
2019-04-29T23:21:05.238Z,100.00
2019-04-29T23:26:11.017Z,100.00
2019-04-29T23:31:16.669Z,100.00
2019-04-29T23:36:22.359Z,100.00
2019-04-29T23:41:33.102Z,100.00
2019-04-29T23:46:35.835Z,100.00
2019-04-29T23:51:41.707Z,100.00
2019-04-29T23:56:56.554Z,100.00
